This is the latest recevied weather packets stored in our database for station/object OE-11051. If no packets are shown the sender has not sent any weather packets the latest 10 day(s).
| Time | Temp. | Humidity | Pressure | Rain* | Wind** | Luminosity | Snow |
|---|---|---|---|---|---|---|---|
| 1788140480 | 65° F | 90% | 760.9 mmHg | 0.04 in | - | 0 W/m² | - |
| 1788140107 | 65° F | 91% | 760.9 mmHg | 0.04 in | - | 0 W/m² | - |
| 1788139507 | 66° F | 90% | 760.9 mmHg | 0.04 in | - | 0 W/m² | - |
| 1788138679 | 66° F | 88% | 761.1 mmHg | 0.04 in | - | 0 W/m² | - |
| 1788138307 | 67° F | 86% | 760.8 mmHg | 0.04 in | - | 0 W/m² | - |
| 1788137707 | 68° F | 84% | 760.9 mmHg | 0.02 in | - | 0 W/m² | - |
| 1788136879 | 68° F | 81% | 761 mmHg | 0 in | - | 0 W/m² | - |
| 1788136507 | 69° F | 76% | 760.9 mmHg | 0 in | - | 0 W/m² | - |
| 1788135907 | 67° F | 78% | 761.2 mmHg | 0 in | - | 0 W/m² | - |
| 1788135080 | 67° F | 80% | 761.3 mmHg | 0 in | - | 0 W/m² | - |
| 1788134707 | 68° F | 76% | 761.2 mmHg | 0 in | - | 0 W/m² | - |
| 1788134107 | 67° F | 77% | 761.1 mmHg | 0 in | - | 0 W/m² | - |
| 1788133518 | 67° F | 80% | 761.3 mmHg | 0 in | - | 0 W/m² | - |
| 1788132906 | 67° F | 80% | 761.1 mmHg | 0 in | - | 0 W/m² | - |
| 1788132306 | 67° F | 81% | 761.2 mmHg | 0 in | - | 0 W/m² | - |
| 1788131707 | 67° F | 82% | 761.3 mmHg | 0 in | - | 0 W/m² | - |
| 1788131107 | 67° F | 82% | 761.4 mmHg | 0 in | - | 0 W/m² | - |
| 1788130507 | 68° F | 78% | 761.3 mmHg | 0 in | - | 0 W/m² | - |
| 1788129680 | 69° F | 74% | 761.2 mmHg | 0 in | - | 0 W/m² | - |
| 1788129307 | 69° F | 71% | 760.9 mmHg | 0 in | - | 0 W/m² | - |
| 1788128707 | 70° F | 70% | 760.9 mmHg | 0 in | - | 0 W/m² | - |
| 1788127881 | 69° F | 73% | 760.9 mmHg | 0 in | - | 0 W/m² | - |
| 1788127507 | 69° F | 75% | 761 mmHg | 0 in | - | 0 W/m² | - |
| 1788126907 | 69° F | 74% | 761 mmHg | 0 in | - | 0 W/m² | - |
| 1788126081 | 68° F | 76% | 761.1 mmHg | 0 in | - | 0 W/m² | - |
* Rain latest hour (hover to see other rain measurements)
** Current wind speed in m/s (hover to see current wind gust speed)